Terminal Aerodrome Forecast
Issued by NWS Blacksburg, VA

Current Version | Previous Version | Text Only | Print | Product List | Glossary Off
Versions: 1 2 3 4 5 6 7 8 9 10 11 12 13 14 15 16 17 18 19 20 21 22 23 24 25 26 27 28 29 30 31 32 33 34 35 36 37 38

000
FTUS41 KRNK 311740
TAFBLF
TAF
KBLF 311740Z 3118/0118 VRB05KT P6SM BKN040
     FM010100 17005KT P6SM -SHRA SCT035 BKN100
     FM010800 00000KT 6SM -RA SCT025 OVC035
     FM011000 14003KT 5SM -RA BR FEW015 OVC025
     FM011500 14004KT 4SM RA BR SCT008 OVC012=

USA.gov is the U.S. government's official web portal to all federal, state and local government web resources and services.